Time;durP1;ratioP1;P1;durP2;ratioP2;P2;SDS_P1;SDS_P2;PMS_P1;PMS_P2;Temp;Humidity;BMP_temperature;BMP_pressure;BME280_temperature;BME280_humidity;BME280_pressure;Samples;Min_cycle;Max_cycle;Signal;HPM_P1;HPM_P2
2022/06/03 00:02:10;;;;;;;;;;;13.80;48.20;;;;;;5019850;28;20005;-88
2022/06/03 00:04:43;;;;;;;;;;;13.80;48.20;;;;;;5016584;28;19913;-85
2022/06/03 00:07:17;;;;;;;;;;;13.80;48.00;;;;;;5023829;28;19933;-86
2022/06/03 00:09:52;;;;;;;;;;;13.70;47.90;;;;;;5000168;28;19948;-85
2022/06/03 00:12:24;;;;;;;;;;;13.70;47.90;;;;;;5032722;28;19924;-86
2022/06/03 00:15:09;;;;;;;;;;;13.60;47.90;;;;;;5037475;28;19913;-86
2022/06/03 00:17:55;;;;;;;;;;;13.60;47.90;;;;;;5037232;28;19924;-87
2022/06/03 00:20:31;;;;;;;;;;;13.50;48.00;;;;;;5029150;28;19925;-86
2022/06/03 00:23:10;;;;;;;;;;;13.50;48.00;;;;;;5031040;28;19917;-86
2022/06/03 00:26:11;;;;;;;;;;;13.50;47.90;;;;;;5038249;28;20016;-86
2022/06/03 00:28:37;;;;;;;;;;;13.50;47.90;;;;;;4941403;29;19918;-87
2022/06/03 00:31:13;;;;;;;;;;;13.40;48.00;;;;;;5018950;28;19913;-87
2022/06/03 00:33:47;;;;;;;;;;;13.40;48.00;;;;;;5040139;28;20391;-87
2022/06/03 00:36:33;;;;;;;;;;;13.40;48.10;;;;;;5057467;28;19931;-88
2022/06/03 00:39:25;;;;;;;;;;;13.40;48.20;;;;;;5036076;28;19917;-86
2022/06/03 00:42:02;;;;;;;;;;;13.30;48.20;;;;;;5019559;28;19984;-86
2022/06/03 00:44:42;;;;;;;;;;;13.30;48.30;;;;;;5020561;28;19924;-87
2022/06/03 00:47:23;;;;;;;;;;;13.20;48.40;;;;;;5025207;28;20383;-86
2022/06/03 00:49:59;;;;;;;;;;;13.20;48.30;;;;;;5037033;28;19917;-87
2022/06/03 00:52:41;;;;;;;;;;;13.20;48.30;;;;;;5019037;28;20284;-88
2022/06/03 00:55:10;;;;;;;;;;;13.10;48.40;;;;;;5019717;28;19924;-88
2022/06/03 00:57:38;;;;;;;;;;;13.10;48.80;;;;;;5039015;28;19960;-87
2022/06/03 01:00:07;;;;;;;;;;;13.10;48.90;;;;;;5019077;28;19944;-87
2022/06/03 01:02:41;;;;;;;;;;;13.00;49.00;;;;;;5037724;28;20289;-87
2022/06/03 01:05:25;;;;;;;;;;;13.00;48.90;;;;;;5036991;28;19983;-87
2022/06/03 01:08:09;;;;;;;;;;;13.00;48.90;;;;;;5020945;28;19913;-87
2022/06/03 01:10:43;;;;;;;;;;;12.90;49.40;;;;;;5015101;28;19918;-87
2022/06/03 01:13:17;;;;;;;;;;;12.80;49.90;;;;;;5030873;28;19913;-87
2022/06/03 01:16:02;;;;;;;;;;;12.80;50.10;;;;;;5034115;28;19917;-87
2022/06/03 01:18:39;;;;;;;;;;;12.80;50.00;;;;;;5005999;28;19928;-87
2022/06/03 01:21:05;;;;;;;;;;;12.80;49.90;;;;;;5018635;28;19920;-87
2022/06/03 01:23:40;;;;;;;;;;;12.70;49.90;;;;;;5032799;28;19917;-86
2022/06/03 01:26:20;;;;;;;;;;;12.70;49.90;;;;;;5009263;28;20304;-86
2022/06/03 01:28:48;;;;;;;;;;;12.70;49.90;;;;;;5030381;28;19924;-85
2022/06/03 01:31:26;;;;;;;;;;;12.70;49.80;;;;;;5014203;28;19921;-85
2022/06/03 01:34:03;;;;;;;;;;;12.70;49.90;;;;;;5020623;28;19924;-85
2022/06/03 01:36:40;;;;;;;;;;;12.70;50.00;;;;;;5034870;28;19917;-86
2022/06/03 01:39:15;;;;;;;;;;;12.60;49.90;;;;;;5017103;28;20396;-85
2022/06/03 01:41:43;;;;;;;;;;;12.60;50.00;;;;;;5033057;28;19952;-86
2022/06/03 01:44:18;;;;;;;;;;;12.60;50.00;;;;;;5035213;28;20340;-86
2022/06/03 01:47:02;;;;;;;;;;;12.50;50.00;;;;;;5017061;28;20388;-86
2022/06/03 01:49:47;;;;;;;;;;;12.50;50.00;;;;;;5017130;28;19924;-86
2022/06/03 01:52:31;;;;;;;;;;;12.50;50.20;;;;;;5016879;28;19920;-86
2022/06/03 01:55:16;;;;;;;;;;;12.50;50.20;;;;;;5017372;28;20382;-87
2022/06/03 01:58:00;;;;;;;;;;;12.50;50.30;;;;;;5021175;28;19928;-87
2022/06/03 02:00:33;;;;;;;;;;;12.50;50.40;;;;;;5014106;28;19917;-87
2022/06/03 02:03:09;;;;;;;;;;;12.40;50.50;;;;;;5018597;28;19920;-87
2022/06/03 02:05:50;;;;;;;;;;;12.40;50.50;;;;;;5034622;28;19913;-88
2022/06/03 02:08:16;;;;;;;;;;;12.40;50.40;;;;;;5017214;28;19913;-87
2022/06/03 02:10:41;;;;;;;;;;;12.40;50.40;;;;;;5034891;28;19925;-88
2022/06/03 02:13:06;;;;;;;;;;;12.40;50.30;;;;;;5014974;28;19921;-86
2022/06/03 02:15:55;;;;;;;;;;;12.40;50.20;;;;;;5006641;28;19917;-88
2022/06/03 02:18:39;;;;;;;;;;;12.40;50.20;;;;;;5017652;28;20327;-88
2022/06/03 02:21:23;;;;;;;;;;;12.30;50.20;;;;;;5017113;28;19925;-88
2022/06/03 02:23:59;;;;;;;;;;;12.30;50.20;;;;;;5034801;28;20012;-88
2022/06/03 02:26:54;;;;;;;;;;;12.30;50.30;;;;;;5035047;28;19918;-87
2022/06/03 02:32:36;;;;;;;;;;;12.20;50.50;;;;;;5035001;28;19971;-87
2022/06/03 02:35:37;;;;;;;;;;;12.20;50.50;;;;;;5016505;28;20250;-87
2022/06/03 02:38:05;;;;;;;;;;;12.20;50.50;;;;;;4976643;28;19921;-88
2022/06/03 02:40:38;;;;;;;;;;;12.10;50.50;;;;;;5009133;28;19971;-87
2022/06/03 02:43:17;;;;;;;;;;;12.00;50.40;;;;;;5016593;28;19920;-86
2022/06/03 02:46:02;;;;;;;;;;;12.00;50.40;;;;;;5016104;28;20368;-87
2022/06/03 02:48:37;;;;;;;;;;;12.00;50.40;;;;;;5016460;28;20007;-86
2022/06/03 02:51:21;;;;;;;;;;;12.00;50.50;;;;;;5006047;28;19913;-86
2022/06/03 02:53:58;;;;;;;;;;;12.00;50.70;;;;;;5014609;28;20333;-87
2022/06/03 02:56:41;;;;;;;;;;;11.90;50.70;;;;;;5016868;28;19939;-86
2022/06/03 02:59:25;;;;;;;;;;;11.90;50.80;;;;;;5033689;28;20336;-87
2022/06/03 03:01:59;;;;;;;;;;;11.90;51.00;;;;;;5015587;28;19917;-86
2022/06/03 03:04:40;;;;;;;;;;;11.90;51.00;;;;;;5023401;28;19959;-86
2022/06/03 03:07:24;;;;;;;;;;;11.80;50.90;;;;;;5014471;28;19919;-86
2022/06/03 03:09:53;;;;;;;;;;;11.80;50.90;;;;;;5032047;28;19913;-85
2022/06/03 03:12:38;;;;;;;;;;;11.80;51.00;;;;;;5031035;28;20103;-87
2022/06/03 03:15:12;;;;;;;;;;;11.80;51.50;;;;;;5007361;28;19913;-86
2022/06/03 03:17:42;;;;;;;;;;;11.70;51.80;;;;;;5004715;28;19925;-87
2022/06/03 03:20:13;;;;;;;;;;;11.80;51.70;;;;;;5014617;28;19962;-87
2022/06/03 03:22:42;;;;;;;;;;;11.80;51.60;;;;;;5032679;28;19917;-87
2022/06/03 03:25:37;;;;;;;;;;;11.80;51.60;;;;;;5015971;28;19920;-88
2022/06/03 03:28:21;;;;;;;;;;;11.80;51.90;;;;;;4999624;28;20270;-87
2022/06/03 03:30:56;;;;;;;;;;;11.90;52.40;;;;;;5017387;28;20341;-87
2022/06/03 03:33:39;;;;;;;;;;;12.00;52.90;;;;;;5013164;28;19917;-87
2022/06/03 03:36:05;;;;;;;;;;;12.30;53.20;;;;;;5032495;28;19921;-86
2022/06/03 03:38:49;;;;;;;;;;;12.50;53.60;;;;;;5014825;28;19921;-87
2022/06/03 03:41:18;;;;;;;;;;;12.70;54.00;;;;;;5032789;28;19913;-87
2022/06/03 03:44:02;;;;;;;;;;;13.00;54.30;;;;;;5009735;28;19924;-86
2022/06/03 03:46:40;;;;;;;;;;;13.30;54.60;;;;;;5033053;28;19936;-88
2022/06/03 03:49:14;;;;;;;;;;;13.60;55.10;;;;;;4997071;28;19924;-87
2022/06/03 03:51:50;;;;;;;;;;;14.00;55.30;;;;;;5014761;28;19931;-88
2022/06/03 03:54:29;;;;;;;;;;;14.30;55.40;;;;;;5034248;28;19917;-88
2022/06/03 03:57:04;;;;;;;;;;;14.70;55.50;;;;;;5032039;28;20332;-88
2022/06/03 03:59:48;;;;;;;;;;;15.10;55.50;;;;;;5017467;28;20316;-87
2022/06/03 04:02:29;;;;;;;;;;;15.40;55.50;;;;;;5032206;28;19952;-87
2022/06/03 04:05:31;;;;;;;;;;;15.80;55.30;;;;;;5031831;28;20007;-87
2022/06/03 04:08:14;;;;;;;;;;;16.20;55.00;;;;;;4954223;28;20001;-86
2022/06/03 04:11:02;;;;;;;;;;;16.50;54.80;;;;;;5021346;28;19913;-88
2022/06/03 04:13:37;;;;;;;;;;;16.90;54.80;;;;;;5010840;28;20066;-87
2022/06/03 04:16:02;;;;;;;;;;;17.30;54.60;;;;;;5019961;28;20013;-88
2022/06/03 04:18:34;;;;;;;;;;;17.70;54.70;;;;;;5022027;28;20032;-88
2022/06/03 04:21:04;;;;;;;;;;;18.00;54.50;;;;;;5014767;28;20404;-88
2022/06/03 04:23:29;;;;;;;;;;;18.40;54.50;;;;;;5015610;28;19913;-88
2022/06/03 04:26:21;;;;;;;;;;;18.80;54.00;;;;;;5033360;28;20389;-88
2022/06/03 04:28:53;;;;;;;;;;;19.20;53.80;;;;;;4996201;28;19921;-88
2022/06/03 04:31:38;;;;;;;;;;;19.60;53.20;;;;;;5002400;28;20039;-88
2022/06/03 04:34:03;;;;;;;;;;;19.90;52.50;;;;;;5018531;28;19969;-88
2022/06/03 04:36:56;;;;;;;;;;;20.30;52.20;;;;;;5017992;28;19944;-88
2022/06/03 04:39:37;;;;;;;;;;;20.70;51.90;;;;;;5036825;28;19940;-88
2022/06/03 04:42:02;;;;;;;;;;;21.00;51.10;;;;;;5018740;28;19909;-88
2022/06/03 04:44:30;;;;;;;;;;;21.40;51.00;;;;;;5018257;28;19913;-89
2022/06/03 04:47:15;;;;;;;;;;;21.80;50.60;;;;;;5018196;28;19918;-87
2022/06/03 04:49:59;;;;;;;;;;;22.20;50.00;;;;;;5018551;28;20419;-87
2022/06/03 04:52:49;;;;;;;;;;;22.60;49.00;;;;;;5036166;28;19963;-88
2022/06/03 04:55:34;;;;;;;;;;;23.00;48.40;;;;;;5018698;28;20262;-87
2022/06/03 04:58:19;;;;;;;;;;;23.50;48.00;;;;;;5017822;28;20135;-87
2022/06/03 05:01:03;;;;;;;;;;;24.00;47.70;;;;;;5018672;28;19909;-88
2022/06/03 05:03:47;;;;;;;;;;;24.50;46.80;;;;;;5035611;28;19975;-88
2022/06/03 05:06:31;;;;;;;;;;;25.00;46.00;;;;;;5038967;28;20425;-88
2022/06/03 05:09:04;;;;;;;;;;;25.50;45.20;;;;;;5027488;28;19924;-87
2022/06/03 05:11:34;;;;;;;;;;;25.90;44.20;;;;;;5028382;28;19996;-87
2022/06/03 05:14:16;;;;;;;;;;;26.30;43.50;;;;;;5036838;28;19956;-88
2022/06/03 05:17:00;;;;;;;;;;;26.80;42.30;;;;;;5034676;28;19917;-87
2022/06/03 05:19:43;;;;;;;;;;;27.20;40.30;;;;;;5026422;28;20307;-87
2022/06/03 05:22:28;;;;;;;;;;;27.50;39.40;;;;;;5031653;28;20374;-87
2022/06/03 05:25:06;;;;;;;;;;;27.80;38.90;;;;;;5035638;28;20230;-87
2022/06/03 05:27:34;;;;;;;;;;;28.20;38.00;;;;;;5035271;28;20016;-87
2022/06/03 05:30:19;;;;;;;;;;;28.60;37.30;;;;;;5035847;28;20020;-87
2022/06/03 05:33:07;;;;;;;;;;;29.00;36.40;;;;;;5035018;28;19924;-88
2022/06/03 05:35:53;;;;;;;;;;;29.40;35.50;;;;;;5032480;28;19936;-87
2022/06/03 05:38:37;;;;;;;;;;;29.80;34.60;;;;;;5042043;28;19921;-88
2022/06/03 05:41:02;;;;;;;;;;;30.20;33.50;;;;;;5034647;28;20230;-85
2022/06/03 05:43:46;;;;;;;;;;;30.50;33.20;;;;;;5029430;28;19971;-87
2022/06/03 05:46:17;;;;;;;;;;;30.80;32.20;;;;;;5016501;28;19986;-87
2022/06/03 05:48:45;;;;;;;;;;;31.10;31.60;;;;;;5031721;28;19924;-86
2022/06/03 05:51:24;;;;;;;;;;;31.40;31.20;;;;;;5022905;28;19921;-87
2022/06/03 05:53:50;;;;;;;;;;;31.70;30.50;;;;;;5027106;28;19921;-86
2022/06/03 05:56:19;;;;;;;;;;;31.90;30.00;;;;;;5015868;28;20393;-86
2022/06/03 05:58:51;;;;;;;;;;;32.20;29.50;;;;;;5025385;28;19921;-87
2022/06/03 06:01:41;;;;;;;;;;;32.40;29.20;;;;;;5033146;28;19913;-87
2022/06/03 06:04:10;;;;;;;;;;;32.70;28.10;;;;;;5001721;28;19921;-86
2022/06/03 06:06:54;;;;;;;;;;;33.00;27.20;;;;;;5032667;28;19921;-87
2022/06/03 06:09:38;;;;;;;;;;;33.20;27.20;;;;;;5021811;28;19921;-87
2022/06/03 06:12:19;;;;;;;;;;;33.50;26.60;;;;;;5031787;28;19913;-87
2022/06/03 06:14:57;;;;;;;;;;;33.80;26.20;;;;;;5021998;28;19921;-86
2022/06/03 06:17:42;;;;;;;;;;;34.00;25.90;;;;;;4998504;28;20533;-87
2022/06/03 06:20:26;;;;;;;;;;;34.20;25.50;;;;;;5015006;28;19966;-87
2022/06/03 06:22:56;;;;;;;;;;;34.30;25.70;;;;;;5030845;28;20381;-87
2022/06/03 06:25:35;;;;;;;;;;;34.40;25.20;;;;;;5022326;28;20242;-86
2022/06/03 06:28:11;;;;;;;;;;;34.60;24.70;;;;;;5020359;28;20003;-88
2022/06/03 06:31:03;;;;;;;;;;;34.70;24.30;;;;;;5023965;28;19921;-88
2022/06/03 06:33:32;;;;;;;;;;;34.90;24.10;;;;;;5010941;28;19913;-88
2022/06/03 06:36:26;;;;;;;;;;;35.10;23.70;;;;;;5025577;28;19951;-86
2022/06/03 06:39:04;;;;;;;;;;;35.20;23.20;;;;;;5028196;28;19919;-88
2022/06/03 06:41:38;;;;;;;;;;;35.20;23.00;;;;;;5031595;28;19944;-88
2022/06/03 06:44:15;;;;;;;;;;;35.00;21.70;;;;;;5021005;28;19913;-87
2022/06/03 06:46:49;;;;;;;;;;;34.90;21.70;;;;;;5034620;28;19917;-88
2022/06/03 06:49:34;;;;;;;;;;;34.90;22.00;;;;;;5040584;28;19921;-87
2022/06/03 06:52:18;;;;;;;;;;;35.00;21.70;;;;;;5021755;28;19991;-87
2022/06/03 06:54:53;;;;;;;;;;;35.00;22.00;;;;;;5022346;28;20423;-87
2022/06/03 06:57:23;;;;;;;;;;;35.10;21.70;;;;;;5019636;28;19975;-86
2022/06/03 06:59:56;;;;;;;;;;;35.00;21.10;;;;;;5027766;28;19917;-86
2022/06/03 07:02:22;;;;;;;;;;;34.80;21.20;;;;;;5028352;28;19913;-87
2022/06/03 07:04:51;;;;;;;;;;;34.70;21.20;;;;;;5034857;28;19983;-88
2022/06/03 07:07:28;;;;;;;;;;;34.50;21.20;;;;;;5029356;28;19917;-86
2022/06/03 07:09:54;;;;;;;;;;;34.40;21.30;;;;;;5015944;28;19933;-87
2022/06/03 07:12:42;;;;;;;;;;;34.30;21.60;;;;;;5030095;28;20064;-87
2022/06/03 07:15:18;;;;;;;;;;;34.40;21.80;;;;;;5020098;28;19987;-88
2022/06/03 07:20:50;;;;;;;;;;;34.90;21.60;;;;;;5031896;28;19943;-87
2022/06/03 07:23:16;;;;;;;;;;;35.20;21.70;;;;;;5012641;28;19917;-89
2022/06/03 07:25:57;;;;;;;;;;;35.40;21.60;;;;;;5032685;28;19921;-89
2022/06/03 07:28:29;;;;;;;;;;;35.60;21.10;;;;;;5023239;28;19913;-88
2022/06/03 07:30:58;;;;;;;;;;;35.70;20.60;;;;;;5033462;28;19984;-89
2022/06/03 07:33:29;;;;;;;;;;;35.60;20.60;;;;;;5016846;28;19992;-88
2022/06/03 07:35:59;;;;;;;;;;;35.50;20.50;;;;;;5031032;28;19921;-88
2022/06/03 07:38:28;;;;;;;;;;;35.40;20.70;;;;;;5017749;28;19971;-88
2022/06/03 07:41:04;;;;;;;;;;;35.50;20.90;;;;;;5032232;28;19917;-87
2022/06/03 07:43:45;;;;;;;;;;;35.70;20.90;;;;;;5022054;28;19968;-87
2022/06/03 07:46:17;;;;;;;;;;;35.80;20.50;;;;;;5023247;28;19967;-88
2022/06/03 07:48:43;;;;;;;;;;;35.90;20.30;;;;;;5025004;28;20369;-88
2022/06/03 07:51:12;;;;;;;;;;;36.10;20.10;;;;;;5011029;28;19917;-88
2022/06/03 07:53:47;;;;;;;;;;;36.20;19.90;;;;;;5017022;28;19917;-88
2022/06/03 07:56:18;;;;;;;;;;;36.30;19.70;;;;;;5033388;28;19947;-89
2022/06/03 07:58:44;;;;;;;;;;;36.30;19.60;;;;;;5026119;28;20320;-88
2022/06/03 08:01:49;;;;;;;;;;;36.50;19.80;;;;;;5033815;28;20338;-88
2022/06/03 08:04:28;;;;;;;;;;;36.60;19.40;;;;;;4961500;28;20072;-88
2022/06/03 08:12:41;;;;;;;;;;;36.60;19.00;;;;;;5035210;28;19923;-87
2022/06/03 08:15:20;;;;;;;;;;;36.50;19.10;;;;;;5020101;28;20468;-87
2022/06/03 08:17:47;;;;;;;;;;;36.70;19.00;;;;;;5035049;28;19939;-88
2022/06/03 08:20:18;;;;;;;;;;;36.70;18.90;;;;;;5035467;28;19921;-87
2022/06/03 08:22:45;;;;;;;;;;;36.80;18.90;;;;;;5035271;28;19917;-87
2022/06/03 08:25:13;;;;;;;;;;;37.00;18.90;;;;;;5035008;28;20270;-87
2022/06/03 08:27:39;;;;;;;;;;;37.20;18.60;;;;;;5026441;28;19917;-88
2022/06/03 08:30:10;;;;;;;;;;;37.40;18.60;;;;;;5036227;28;19921;-87
2022/06/03 08:32:58;;;;;;;;;;;37.60;18.30;;;;;;5035783;28;19917;-88
2022/06/03 08:35:26;;;;;;;;;;;37.90;18.60;;;;;;5005192;28;20556;-88
2022/06/03 08:37:54;;;;;;;;;;;38.20;17.90;;;;;;5017994;28;19925;-87
2022/06/03 08:40:25;;;;;;;;;;;38.20;17.90;;;;;;5018653;28;20066;-87
2022/06/03 08:43:12;;;;;;;;;;;38.10;17.80;;;;;;5035061;28;20004;-89
2022/06/03 08:45:53;;;;;;;;;;;38.00;17.90;;;;;;5025159;28;19917;-87
2022/06/03 08:48:20;;;;;;;;;;;38.10;17.90;;;;;;5035138;28;19913;-87
2022/06/03 08:50:55;;;;;;;;;;;38.30;18.00;;;;;;5024053;28;19924;-87
2022/06/03 08:53:39;;;;;;;;;;;38.30;17.70;;;;;;5034652;28;20438;-87
2022/06/03 08:56:09;;;;;;;;;;;38.50;17.60;;;;;;5034705;28;19916;-87
2022/06/03 08:58:54;;;;;;;;;;;38.50;17.20;;;;;;5035424;28;19921;-87
2022/06/03 09:01:22;;;;;;;;;;;38.60;17.50;;;;;;5035349;28;20321;-87
2022/06/03 09:04:00;;;;;;;;;;;38.50;16.90;;;;;;5035709;28;20317;-87
2022/06/03 09:06:25;;;;;;;;;;;38.30;17.00;;;;;;5037219;28;19925;-88
2022/06/03 09:08:54;;;;;;;;;;;38.30;17.10;;;;;;5020263;28;19913;-87
2022/06/03 09:11:29;;;;;;;;;;;38.40;17.30;;;;;;5029853;28;19917;-87
2022/06/03 09:14:03;;;;;;;;;;;38.40;16.80;;;;;;5037851;28;19909;-89
2022/06/03 09:16:29;;;;;;;;;;;38.30;16.90;;;;;;5023609;28;19928;-89
2022/06/03 09:19:01;;;;;;;;;;;38.50;17.20;;;;;;5021820;28;19917;-88
2022/06/03 09:21:31;;;;;;;;;;;38.60;16.90;;;;;;5020774;28;19921;-89
2022/06/03 09:24:22;;;;;;;;;;;38.70;16.70;;;;;;5036011;28;19917;-88
2022/06/03 09:26:56;;;;;;;;;;;38.60;17.00;;;;;;5014540;28;19921;-88
2022/06/03 09:29:21;;;;;;;;;;;38.70;16.90;;;;;;5020809;28;19917;-88
2022/06/03 09:31:52;;;;;;;;;;;38.70;16.50;;;;;;5037833;28;19992;-87
2022/06/03 09:34:21;;;;;;;;;;;38.70;16.70;;;;;;5023467;28;19912;-89
2022/06/03 09:36:47;;;;;;;;;;;38.70;16.60;;;;;;5016794;28;19929;-89
2022/06/03 09:39:14;;;;;;;;;;;38.80;16.90;;;;;;5015140;28;19919;-88
2022/06/03 09:41:41;;;;;;;;;;;38.80;16.90;;;;;;5022083;28;20007;-88
2022/06/03 09:44:08;;;;;;;;;;;38.80;16.80;;;;;;5020879;28;19913;-88
2022/06/03 09:46:35;;;;;;;;;;;38.80;16.70;;;;;;5025039;28;19924;-87
2022/06/03 09:49:02;;;;;;;;;;;38.90;17.00;;;;;;5036507;28;19921;-89
2022/06/03 09:54:24;;;;;;;;;;;38.80;16.50;;;;;;5035887;28;20361;-90
2022/06/03 09:56:52;;;;;;;;;;;38.50;16.80;;;;;;5037068;28;20325;-89
2022/06/03 09:59:26;;;;;;;;;;;38.20;17.00;;;;;;5026291;28;19921;-89
2022/06/03 10:01:52;;;;;;;;;;;38.00;17.30;;;;;;5015135;28;20373;-88
2022/06/03 10:04:19;;;;;;;;;;;37.60;17.70;;;;;;5014885;28;19929;-89
2022/06/03 10:06:48;;;;;;;;;;;37.40;17.90;;;;;;5030559;28;19919;-89
2022/06/03 10:15:37;;;;;;;;;;;38.10;17.30;;;;;;5032284;28;19971;-88
2022/06/03 10:17:31;;;;;;;;;;;38.40;17.60;;;;;;5034013;28;19936;-89
2022/06/03 10:19:57;;;;;;;;;;;38.90;17.00;;;;;;5029523;28;20301;-88
2022/06/03 10:22:24;;;;;;;;;;;39.10;17.00;;;;;;5019936;28;19913;-88
2022/06/03 10:24:49;;;;;;;;;;;39.20;16.90;;;;;;5014635;28;20728;-90
2022/06/03 10:27:18;;;;;;;;;;;39.30;17.00;;;;;;5007920;28;19960;-89
2022/06/03 10:29:48;;;;;;;;;;;39.40;17.20;;;;;;5016497;28;19921;-88
2022/06/03 10:32:16;;;;;;;;;;;39.40;17.20;;;;;;5015938;28;19971;-88
2022/06/03 10:34:42;;;;;;;;;;;39.70;17.00;;;;;;5032300;28;19921;-88
2022/06/03 10:37:34;;;;;;;;;;;40.00;16.70;;;;;;4998490;28;20031;-88
2022/06/03 10:39:59;;;;;;;;;;;40.10;16.30;;;;;;5012471;28;19921;-88
2022/06/03 10:42:25;;;;;;;;;;;39.80;16.40;;;;;;5030504;28;20405;-88
2022/06/03 10:44:55;;;;;;;;;;;39.40;16.40;;;;;;5017499;28;19932;-89
2022/06/03 10:47:22;;;;;;;;;;;39.00;16.40;;;;;;5018003;28;19940;-88
2022/06/03 10:49:51;;;;;;;;;;;38.50;16.90;;;;;;5018267;28;19921;-88
2022/06/03 11:01:10;;;;;;;;;;;38.20;17.40;;;;;;5039064;28;20001;-89
2022/06/03 11:03:38;;;;;;;;;;;37.80;17.60;;;;;;5020257;28;19999;-90
2022/06/03 11:06:06;;;;;;;;;;;37.70;17.60;;;;;;5027118;28;20465;-89
2022/06/03 11:08:50;;;;;;;;;;;37.90;17.50;;;;;;5014317;28;19917;-88
2022/06/03 11:11:36;;;;;;;;;;;38.20;17.60;;;;;;5026981;28;20026;-89
2022/06/03 11:14:20;;;;;;;;;;;38.30;17.30;;;;;;5034316;28;19917;-89
2022/06/03 11:16:50;;;;;;;;;;;38.30;17.40;;;;;;5014024;28;20016;-90
2022/06/03 11:19:16;;;;;;;;;;;38.40;17.50;;;;;;5015731;28;20007;-90
2022/06/03 11:21:42;;;;;;;;;;;38.60;17.00;;;;;;5030754;28;19924;-90
2022/06/03 11:24:07;;;;;;;;;;;38.70;17.10;;;;;;5016287;28;19921;-89
2022/06/03 11:26:40;;;;;;;;;;;39.00;17.10;;;;;;5023475;28;19917;-89
2022/06/03 11:29:17;;;;;;;;;;;39.10;16.60;;;;;;5031302;28;19929;-90
2022/06/03 11:31:46;;;;;;;;;;;39.10;16.50;;;;;;5018980;28;19924;-89
2022/06/03 11:34:18;;;;;;;;;;;39.20;16.70;;;;;;5011878;28;20377;-89
2022/06/03 11:36:47;;;;;;;;;;;39.00;16.80;;;;;;5028937;28;20063;-89
2022/06/03 11:39:29;;;;;;;;;;;39.10;16.80;;;;;;5027822;28;19921;-88
2022/06/03 11:42:00;;;;;;;;;;;39.20;16.90;;;;;;5033022;28;19921;-88
2022/06/03 11:44:40;;;;;;;;;;;39.30;16.50;;;;;;5021154;28;19921;-89
2022/06/03 11:47:11;;;;;;;;;;;38.90;16.30;;;;;;5018799;28;19913;-88
2022/06/03 11:49:37;;;;;;;;;;;38.60;16.80;;;;;;5032182;28;19913;-87
2022/06/03 11:52:03;;;;;;;;;;;38.30;17.00;;;;;;5034734;28;19913;-90
2022/06/03 11:54:28;;;;;;;;;;;38.00;17.10;;;;;;5021180;28;20043;-87
2022/06/03 11:56:54;;;;;;;;;;;37.80;17.40;;;;;;5021551;28;19917;-87
2022/06/03 11:59:31;;;;;;;;;;;38.00;17.50;;;;;;5029175;28;19921;-88
2022/06/03 12:02:10;;;;;;;;;;;38.40;17.10;;;;;;5006176;28;20015;-88
2022/06/03 12:04:57;;;;;;;;;;;38.50;17.20;;;;;;5014814;28;20448;-87
2022/06/03 12:07:28;;;;;;;;;;;38.40;16.90;;;;;;5019796;28;19917;-88
2022/06/03 12:09:57;;;;;;;;;;;38.00;17.30;;;;;;5024265;28;20075;-88
2022/06/03 12:15:33;;;;;;;;;;;37.10;18.00;;;;;;5037165;28;19920;-88
2022/06/03 12:18:14;;;;;;;;;;;36.70;18.30;;;;;;5028432;28;20004;-88
2022/06/03 12:20:47;;;;;;;;;;;36.70;18.40;;;;;;5035386;28;19947;-88
2022/06/03 12:23:13;;;;;;;;;;;36.80;18.40;;;;;;5028798;28;19917;-88
2022/06/03 12:25:39;;;;;;;;;;;37.10;18.20;;;;;;5025595;28;19917;-88
2022/06/03 12:28:05;;;;;;;;;;;37.40;18.10;;;;;;5018303;28;20229;-88
2022/06/03 12:30:47;;;;;;;;;;;37.70;17.90;;;;;;5022753;28;19921;-88
2022/06/03 12:33:23;;;;;;;;;;;37.70;18.00;;;;;;5035710;28;20043;-88
2022/06/03 12:35:52;;;;;;;;;;;37.70;17.80;;;;;;5025294;28;19988;-88
2022/06/03 12:38:20;;;;;;;;;;;37.70;18.10;;;;;;5019829;28;20008;-88
2022/06/03 12:40:47;;;;;;;;;;;37.60;18.30;;;;;;5019591;28;19917;-88
2022/06/03 12:43:25;;;;;;;;;;;37.10;18.60;;;;;;5034639;28;19921;-88
2022/06/03 12:45:58;;;;;;;;;;;36.60;19.00;;;;;;5018012;28;19923;-87
2022/06/03 12:48:35;;;;;;;;;;;36.30;19.40;;;;;;5025086;28;19949;-87
2022/06/03 12:51:20;;;;;;;;;;;36.00;19.80;;;;;;5019959;28;20012;-88
2022/06/03 12:53:51;;;;;;;;;;;36.00;20.10;;;;;;5016528;28;20011;-88
2022/06/03 12:56:26;;;;;;;;;;;36.40;20.10;;;;;;5024074;28;19944;-88
2022/06/03 12:58:54;;;;;;;;;;;36.90;19.70;;;;;;5036536;28;19917;-90
2022/06/03 13:01:37;;;;;;;;;;;37.30;19.30;;;;;;5036899;28;19913;-89
2022/06/03 13:04:21;;;;;;;;;;;37.50;18.80;;;;;;5043951;28;19988;-89
2022/06/03 13:07:09;;;;;;;;;;;37.40;18.50;;;;;;5023564;28;19913;-88
2022/06/03 13:09:57;;;;;;;;;;;;;;;;;;;;;
2022/06/03 13:12:32;;;;;;;;;;;36.30;19.20;;;;;;5034862;28;19988;-88
2022/06/03 13:15:20;;;;;;;;;;;35.60;19.60;;;;;;5038444;28;19921;-88
2022/06/03 13:18:12;;;;;;;;;;;35.30;20.20;;;;;;5012608;28;19925;-89
2022/06/03 13:20:42;;;;;;;;;;;35.40;20.50;;;;;;5020367;28;19917;-89
2022/06/03 13:23:33;;;;;;;;;;;36.00;20.20;;;;;;5028342;28;19909;-89
2022/06/03 13:26:19;;;;;;;;;;;36.50;19.90;;;;;;5037056;28;19940;-89
2022/06/03 13:28:46;;;;;;;;;;;37.00;19.50;;;;;;5018331;28;19913;-89
2022/06/03 13:31:19;;;;;;;;;;;37.00;19.20;;;;;;5035408;28;19943;-89
2022/06/03 13:34:03;;;;;;;;;;;36.60;19.00;;;;;;5018105;28;20320;-90
2022/06/03 13:36:31;;;;;;;;;;;36.30;19.20;;;;;;5036567;28;19928;-89
2022/06/03 13:38:56;;;;;;;;;;;36.10;19.90;;;;;;5045475;28;19920;-89
2022/06/03 13:44:10;;;;;;;;;;;36.60;19.30;;;;;;5035999;28;19927;-89
2022/06/03 13:46:46;;;;;;;;;;;36.30;19.50;;;;;;5025241;28;19913;-89
2022/06/03 13:49:17;;;;;;;;;;;36.30;19.60;;;;;;5034778;28;19971;-87
2022/06/03 13:52:01;;;;;;;;;;;36.30;19.70;;;;;;5009560;28;20269;-87
2022/06/03 13:54:33;;;;;;;;;;;36.00;20.10;;;;;;5036533;28;20095;-88
2022/06/03 13:57:19;;;;;;;;;;;35.30;20.60;;;;;;5029326;28;19941;-87
2022/06/03 13:59:45;;;;;;;;;;;34.90;20.90;;;;;;5034392;28;19918;-88
2022/06/03 14:02:31;;;;;;;;;;;34.80;20.80;;;;;;5034759;28;19913;-89
2022/06/03 14:04:59;;;;;;;;;;;35.10;20.60;;;;;;5027708;28;19944;-87
2022/06/03 14:07:38;;;;;;;;;;;35.10;20.70;;;;;;5035861;28;19910;-87
2022/06/03 14:10:23;;;;;;;;;;;34.80;21.00;;;;;;5034872;28;20011;-89
2022/06/03 14:12:55;;;;;;;;;;;34.80;21.00;;;;;;5012574;28;20019;-88
2022/06/03 14:15:23;;;;;;;;;;;35.30;20.90;;;;;;5035635;28;19913;-89
2022/06/03 14:17:51;;;;;;;;;;;35.00;21.10;;;;;;5035433;28;19925;-89
2022/06/03 14:20:22;;;;;;;;;;;34.70;21.40;;;;;;5035623;28;20368;-87
2022/06/03 14:23:00;;;;;;;;;;;34.40;21.60;;;;;;5036122;28;19935;-90
2022/06/03 14:25:31;;;;;;;;;;;34.30;21.90;;;;;;5023354;28;20035;-89
2022/06/03 14:28:05;;;;;;;;;;;34.40;21.80;;;;;;5018431;28;19921;-88
2022/06/03 14:30:49;;;;;;;;;;;34.50;21.70;;;;;;5035361;28;19909;-89
2022/06/03 14:33:24;;;;;;;;;;;34.50;21.60;;;;;;5024035;28;20007;-89
2022/06/03 14:35:57;;;;;;;;;;;34.30;22.00;;;;;;5002628;28;19967;-89
2022/06/03 14:38:32;;;;;;;;;;;34.10;22.40;;;;;;5045468;28;20377;-88
2022/06/03 14:41:03;;;;;;;;;;;33.80;22.40;;;;;;5034466;28;19909;-88
2022/06/03 14:43:53;;;;;;;;;;;33.60;22.80;;;;;;5020209;28;19913;-89
2022/06/03 14:46:27;;;;;;;;;;;33.30;22.80;;;;;;5031530;28;19967;-87
2022/06/03 14:49:02;;;;;;;;;;;32.90;23.20;;;;;;5033740;28;20000;-89
2022/06/03 14:51:54;;;;;;;;;;;32.80;23.60;;;;;;5019389;28;19921;-89
2022/06/03 14:54:43;;;;;;;;;;;32.70;23.90;;;;;;5029257;28;19933;-88
2022/06/03 14:57:16;;;;;;;;;;;32.60;24.00;;;;;;5014717;28;19937;-88
2022/06/03 14:59:53;;;;;;;;;;;32.50;24.10;;;;;;5033246;28;19940;-90
2022/06/03 15:02:31;;;;;;;;;;;32.30;24.10;;;;;;5025753;28;20349;-88
2022/06/03 15:05:00;;;;;;;;;;;32.20;24.10;;;;;;5018369;28;19921;-89
2022/06/03 15:07:30;;;;;;;;;;;32.20;24.20;;;;;;5033814;28;19917;-90
2022/06/03 15:10:01;;;;;;;;;;;32.10;24.40;;;;;;5023433;28;20342;-88
2022/06/03 15:12:31;;;;;;;;;;;32.00;24.60;;;;;;5027901;28;19917;-87
2022/06/03 15:14:57;;;;;;;;;;;32.00;24.70;;;;;;5022843;28;19932;-88
2022/06/03 15:17:24;;;;;;;;;;;31.90;24.60;;;;;;5015684;28;19924;-88
2022/06/03 15:19:52;;;;;;;;;;;31.80;24.80;;;;;;5031554;28;19971;-88
2022/06/03 15:22:37;;;;;;;;;;;31.80;24.90;;;;;;5031938;28;20684;-88
2022/06/03 15:25:08;;;;;;;;;;;31.80;25.00;;;;;;5032076;28;19917;-88
2022/06/03 15:27:48;;;;;;;;;;;31.80;25.00;;;;;;5015991;28;19940;-88
2022/06/03 15:30:14;;;;;;;;;;;31.80;25.00;;;;;;5033137;28;19951;-87
2022/06/03 15:32:41;;;;;;;;;;;31.80;25.00;;;;;;5019610;28;20391;-87
2022/06/03 15:35:19;;;;;;;;;;;31.70;25.10;;;;;;5019591;28;20431;-88
2022/06/03 15:37:45;;;;;;;;;;;31.70;25.20;;;;;;5012863;28;19929;-88
2022/06/03 15:40:22;;;;;;;;;;;31.50;25.20;;;;;;5016865;28;20027;-88
2022/06/03 15:42:54;;;;;;;;;;;31.50;25.40;;;;;;5009759;28;19922;-87